To NAV CANADA Home Page Login to a new session Search on AWWS site Feedback and Comments Disclaimer Vers la page française équivalente Tips FAQ What's new on the site To the Forecasts and Observations / NOTAM section To "File a Flight Plan" website Publications and other links Update of the User's profile FIC Telephone Numbers My Weather Data Folder Route Weather Data Regional Weather Data Local Weather Data To the Forecasts and Observations / NOTAM section
Request Generated 06/26/2017 at 22:36:14 UTC . Weather information available at that time is displayed.

METAR/TAF

OLD CROW/YT    

METAR CYOC 262200Z VRB10KT 35SM SCT030 SCT040 SCT220 17/06 A2985 RMK
SF3SC1CI1 SC TR SLP120 DENSITY ALT 1300FT=
METAR CYOC 262100Z 04008KT 35SM FEW026 SCT037 SCT100 BKN220 15/06
A2987 RMK CU2SC1AC1CI1 SLP125 DENSITY ALT 1200FT=
METAR CYOC 262000Z 04010G15KT 35SM SCT026 SCT037 BKN100 BKN220 14/06
A2988 RMK CU3SC1AC1CI1 SLP128 DENSITY ALT 1000FT=

TAF CYOC 261738Z 2618/2701 03010G20KT P6SM FEW040 BKN100
RMK NXT FCST WILL BE ISSUED AT 271445Z=
Your time UTC time
Weather data provided by Environment Canada and NAV CANADA